Goshen, New York
Current Conditions -  °F | °C
As of 3:54 PM on Friday 24 Oct 2014 (Local Time) from KMGJ Reporting Station
Overcast Overcast  
Wind Chill: 63°   Ceiling: 8000
Heat Index: 63°   Visibility: 10mi
Dew Point: 45°   Wind: 12mph
Humidity: 52%   Direction: 350°N
Pressure: 29.76"   Gusts: 22mph
Location:  41.41°N, 74.32°W
Report Text: KMGJ 241954Z AUTO 35010G19KT 10SM OVC080 17/07 A2976 RMK AO2 SLP076 T01720072 TSNO $
Loading
Personal Weather Stations






























Interactive Weather Map New forecast layout! Learn more

10-Day Weather Forecast

Advertisements
Track Severe Weather on mobile